Fruita, CO (81521)

8:16 AM MDT on October 20, 2014 (GMT -0600)
Comstock West | Change Station
CLOSE
Current Station
Personal Weather Station
Location: Fruita, CO
Elevation: 1373 m
Nearby Weather Stations

Elev 1373 m 39.17 °N, 108.74 °W | Updated 58 seconds ago

Clear
Clear
4.9 °C
Feels Like 5 °C
N
0.0
Wind Variable Wind from NNE
Gusts 0.0 km/h

Today
High -- | Low -- °C
--% Chance of Precip.
Yesterday
High -- | Low -- °C
Precip. -- mm
7:29 AM 6:28 PM
Waning Crescent, 11% visible
Pressure 1018 hPa
Visibility 16.1 kilometers
Clouds Clear
Windchill 5 °C
Dew Point 3 °C
Humidity 85%
Rainfall 0 mm
Snow Depth Not available.
UV 0 out of 12
Pollen 1.80 out of 12
Air Quality Not available.
Flu Activity Sporadic
METAR KGJT 201353Z 00000KT 10SM CLR 07/01 A3015 RMK AO2 SLP183 T00670006 $

More Conditions Fewer Conditions

Pressure 1018 hPa
Visibility 16.1 kilometers
Clouds Clear
Windchill 5 °C
Dew Point 3 °C
Humidity 85%
Rainfall 0 mm
Snow Depth Not available.
UV 0 out of 12
Pollen 1.80 out of 12
Air Quality Not available.
Flu Activity Sporadic
METAR KGJT 201353Z 00000KT 10SM CLR 07/01 A3015 RMK AO2 SLP183 T00670006 $

More Conditions Fewer Conditions

10-Day Weather Forecast

Almanac

Astronomy

Oct. 20, 2014 Rise Set
Actual Time 7:29 AM MDT 6:28 PM MDT
Civil Twilight 7:02 AM MDT 6:56 PM MDT
Nautical Twilight 6:31 AM MDT 7:27 PM MDT
Astronomical Twilight 6:00 AM MDT 7:58 PM MDT
Moon 4:21 AM MDT 4:52 PM MDT
Length of Visible Light 11h 53m
Length of Day
10h 59m
Waning Crescent, 11% of the Moon is Illuminated
Today
Waning Crescent
Oct 23
New
Oct 30
First Quarter
Nov 6
Full
Nov 14
Last Quarter

Today's Extremes

State Highs State Lows

Community

WunderPhotos

Upload Photos

1,763,388 photos uploaded!

WunderBlogs® & News

By Dr. Jeff Masters
Director of Meteorology, Weather Underground
By Kari Strenfel
Meteorologist, Weather Underground
By Christopher C. Burt
Weather Historian, Weather Underground
October 20, 2014
October 20, 2014
October 20, 2014

Nearby

Snow Depth

Station Depth Elevation
Mesa Lakes 0 in 10000 ft
Park Reservoir 1 in 9960 ft
Columbine Pass 1 in 9400 ft
Overland Reservoir 0 in 9880 ft
McClure Pass 0 in 9500 ft

Earthquake Activity

City Distance Mag. Time & Date
No recent earthquake activity has been reported nearby.
Minimum magnitude displayed is 2.5.

Coastal Water Temperatures

Place Temperature
No Stations Reporting

Nearby Weather Stations